Local Weather
17097
page-template-default,page,page-id-17097,bridge-core-1.0.4,ajax_fade,page_not_loaded,,hide_top_bar_on_mobile_header,qode-child-theme-ver-1.0.0,qode-theme-ver-18.0.9,qode-theme-bridge,qode_header_in_grid,wpb-js-composer js-comp-ver-4.11.2.1,vc_responsive
 

LOCAL WEATHER

METAR & TAF for EGTK Oxford

Available data for EGTK from the past hour
OXFORD
Metar
EGTK 090920Z 10005KT 070V130 5000 HZ NSC 16/09 Q1025

09:20 UTC

Wind: 100° 5kt

Visibility: 5000 m

Sky:

Temp: 16 deg C / 60.8 deg F

Dewpoint: 9 deg C / 48.2 deg F

Pressure: 1025 hPa

TAF
TAF AMD EGTK 090859Z 0909/0918 07007KT 4500 HZ FEW045 BECMG 0909/0912 9999 NSW PROB40 0912/0915 7000